Time;durP1;ratioP1;P1;durP2;ratioP2;P2;SDS_P1;SDS_P2;PMS_P1;PMS_P2;Temp;Humidity;BMP_temperature;BMP_pressure;BME280_temperature;BME280_humidity;BME280_pressure;Samples;Min_cycle;Max_cycle;Signal;HPM_P1;HPM_P2
2022/12/19 00:01:01;;;;;;;60.33;28.00;;;;;;;13.18;15.07;100208.91;4984630;28;20558;-79
2022/12/19 00:03:27;;;;;;;65.65;29.35;;;;;;;13.10;14.71;100218.72;4989500;28;20918;-79
2022/12/19 00:05:53;;;;;;;69.88;30.90;;;;;;;13.16;14.56;100219.44;4984295;28;20418;-79
2022/12/19 00:08:19;;;;;;;61.03;27.67;;;;;;;13.23;14.50;100208.81;4982608;28;20504;-80
2022/12/19 00:10:55;;;;;;;70.10;32.25;;;;;;;13.01;14.06;100212.28;4983938;28;20439;-79
2022/12/19 00:13:21;;;;;;;64.80;30.63;;;;;;;12.67;14.51;100209.13;4983334;28;20418;-80
2022/12/19 00:15:47;;;;;;;70.63;30.57;;;;;;;12.66;14.86;100206.69;4986183;28;20452;-79
2022/12/19 00:18:13;;;;;;;77.43;34.00;;;;;;;12.77;14.03;100205.34;4986828;28;20403;-79
2022/12/19 00:20:39;;;;;;;81.50;37.30;;;;;;;12.55;14.00;100205.25;4983658;28;20437;-80
2022/12/19 00:23:06;;;;;;;81.97;36.33;;;;;;;12.29;14.11;100204.91;4980635;28;20469;-80
2022/12/19 00:25:32;;;;;;;84.17;38.27;;;;;;;12.07;13.87;100196.50;4983347;28;20421;-80
2022/12/19 00:27:58;;;;;;;88.37;38.53;;;;;;;12.15;14.54;100199.41;4982515;28;20434;-79
2022/12/19 00:30:24;;;;;;;98.80;42.78;;;;;;;12.37;14.59;100199.50;4981959;28;20410;-79
2022/12/19 00:32:51;;;;;;;105.63;44.47;;;;;;;12.51;13.69;100188.50;4991662;28;20445;-79
2022/12/19 00:35:17;;;;;;;99.40;41.70;;;;;;;12.48;14.93;100202.91;4984229;28;20411;-79
2022/12/19 00:37:43;;;;;;;106.43;44.45;;;;;;;12.59;13.69;100198.81;4982973;28;20450;-80
2022/12/19 00:40:10;;;;;;;90.15;39.65;;;;;;;12.20;14.34;100201.25;4985968;28;20823;-80
2022/12/19 00:42:36;;;;;;;83.90;37.40;;;;;;;12.39;14.15;100197.25;4981830;28;20463;-79
2022/12/19 00:45:02;;;;;;;81.50;36.13;;;;;;;12.53;13.87;100200.06;4971601;28;20470;-79
2022/12/19 00:47:28;;;;;;;78.18;35.42;;;;;;;12.47;14.02;100190.25;4986154;28;20424;-79
2022/12/19 00:49:54;;;;;;;82.15;36.30;;;;;;;11.87;13.97;100196.88;4987741;28;20625;-80
2022/12/19 00:52:20;;;;;;;76.20;34.35;;;;;;;11.35;14.61;100198.75;4990235;28;20418;-79
2022/12/19 00:54:47;;;;;;;77.00;34.23;;;;;;;11.28;14.65;100195.56;4986521;28;20428;-80
2022/12/19 00:57:13;;;;;;;73.28;33.85;;;;;;;11.56;14.67;100191.00;4983188;28;20484;-79
2022/12/19 00:59:39;;;;;;;72.20;32.30;;;;;;;11.83;14.93;100188.41;4979419;28;20927;-79
2022/12/19 01:02:06;;;;;;;69.30;32.35;;;;;;;11.66;14.11;100182.59;4981226;28;20874;-79
2022/12/19 01:04:32;;;;;;;67.17;30.50;;;;;;;11.13;14.31;100180.09;4984899;28;20438;-80
2022/12/19 01:06:58;;;;;;;69.00;30.70;;;;;;;10.43;15.08;100179.09;4984947;28;20403;-80
2022/12/19 01:09:24;;;;;;;67.55;31.00;;;;;;;10.35;15.13;100165.19;4981318;28;20975;-80
2022/12/19 01:14:35;;;;;;;61.60;28.30;;;;;;;10.39;15.64;100147.84;4986912;28;20508;-79
2022/12/19 01:17:01;;;;;;;66.57;27.98;;;;;;;10.83;15.57;100149.47;4988071;28;20429;-79
2022/12/19 01:19:28;;;;;;;64.72;27.63;;;;;;;11.37;15.32;100149.78;4981570;28;20425;-80
2022/12/19 01:21:54;;;;;;;64.18;27.70;;;;;;;11.10;15.29;100144.16;4993912;28;20414;-79
2022/12/19 01:24:20;;;;;;;63.35;27.20;;;;;;;11.09;15.40;100134.25;4976768;28;20418;-79
2022/12/19 01:26:46;;;;;;;60.90;27.08;;;;;;;11.43;15.47;100132.09;4986857;28;20435;-79
2022/12/19 01:29:12;;;;;;;63.45;27.92;;;;;;;11.48;15.74;100126.50;4979033;28;21739;-79
2022/12/19 01:31:38;;;;;;;56.63;26.80;;;;;;;11.69;15.75;100122.31;4974510;28;20414;-79
2022/12/19 01:34:05;;;;;;;58.70;25.48;;;;;;;12.08;15.55;100113.63;4982271;28;20408;-79
2022/12/19 01:36:31;;;;;;;53.13;24.73;;;;;;;12.48;15.72;100103.75;4976730;28;20936;-79
2022/12/19 01:38:57;;;;;;;58.42;25.55;;;;;;;12.96;15.17;100099.34;4974342;28;20442;-80
2022/12/19 01:41:24;;;;;;;55.60;24.95;;;;;;;12.85;15.44;100100.72;4990287;28;20488;-80
2022/12/19 01:44:00;;;;;;;60.10;27.57;;;;;;;11.89;15.84;100098.31;4985332;28;20428;-80
2022/12/19 01:46:32;;;;;;;64.40;27.75;;;;;;;11.24;16.91;100101.06;4983584;28;20426;-80
2022/12/19 01:48:59;;;;;;;62.33;27.10;;;;;;;10.87;17.39;100095.59;4981419;28;20420;-80
2022/12/19 01:51:33;;;;;;;56.30;26.45;;;;;;;10.38;17.98;100091.28;4978697;28;20522;-80
2022/12/19 01:54:05;;;;;;;67.28;28.95;;;;;;;8.64;19.66;100095.34;4994953;28;20448;-80
2022/12/19 01:56:35;;;;;;;60.45;27.75;;;;;;;9.47;19.25;100088.72;4989794;28;20420;-79
2022/12/19 01:59:06;;;;;;;58.25;26.70;;;;;;;10.31;18.61;100088.13;4982692;28;21005;-80
2022/12/19 02:01:33;;;;;;;58.67;26.70;;;;;;;10.68;18.13;100084.59;4968117;28;21049;-80
2022/12/19 02:04:01;;;;;;;54.95;26.10;;;;;;;10.73;18.23;100084.53;4987076;28;20405;-80
2022/12/19 02:06:29;;;;;;;56.00;24.92;;;;;;;11.42;17.70;100082.88;4989037;28;20520;-80
2022/12/19 02:08:56;;;;;;;52.15;24.42;;;;;;;12.39;16.60;100076.06;4983107;28;20937;-80
2022/12/19 02:11:22;;;;;;;57.00;24.92;;;;;;;12.22;17.03;100078.66;4975921;28;20428;-79
2022/12/19 02:13:48;;;;;;;51.57;23.47;;;;;;;12.91;16.41;100071.91;4977207;28;20427;-80
2022/12/19 02:16:18;;;;;;;56.55;25.45;;;;;;;12.83;16.26;100061.63;4976860;28;20441;-79
2022/12/19 02:19:11;;;;;;;59.43;26.80;;;;;;;12.66;16.32;100064.22;4984766;28;20510;-80
2022/12/19 02:22:02;;;;;;;56.53;26.73;;;;;;;13.30;15.85;100062.19;4978769;28;20747;-79
2022/12/19 02:24:53;;;;;;;60.85;26.75;;;;;;;13.07;15.89;100059.41;4981082;28;21014;-80
2022/12/19 02:27:59;;;;;;;61.10;28.23;;;;;;;11.68;17.14;100062.91;4977143;28;20426;-80
2022/12/19 02:30:37;;;;;;;53.72;24.42;;;;;;;12.75;16.99;100058.78;4976125;28;20417;-80
2022/12/19 02:33:23;;;;;;;52.30;24.20;;;;;;;12.80;16.34;100051.22;4976672;28;20449;-79
2022/12/19 02:36:04;;;;;;;57.22;25.95;;;;;;;13.45;15.89;100045.22;4981805;28;20498;-80
2022/12/19 02:38:38;;;;;;;56.40;24.45;;;;;;;13.74;15.90;100042.81;4981348;28;20414;-80
2022/12/19 02:41:14;;;;;;;51.45;24.63;;;;;;;13.58;16.21;100036.88;4971333;28;20489;-79
2022/12/19 02:43:45;;;;;;;56.55;24.77;;;;;;;13.89;15.46;100028.56;4977878;28;20434;-80
2022/12/19 02:46:12;;;;;;;49.35;23.45;;;;;;;14.01;15.59;100026.03;4981024;28;20762;-80
2022/12/19 02:48:39;;;;;;;62.03;28.77;;;;;;;10.30;18.19;100034.31;4978041;28;20965;-80
2022/12/19 02:51:05;;;;;;;52.73;23.60;;;;;;;12.04;17.94;100023.72;4974392;28;20422;-80
2022/12/19 02:53:32;;;;;;;52.67;23.60;;;;;;;11.68;17.50;100018.91;4979484;28;20411;-80
2022/12/19 02:56:22;;;;;;;49.65;23.50;;;;;;;11.04;17.97;100022.47;4984737;28;20471;-80
2022/12/19 02:58:57;;;;;;;54.03;24.57;;;;;;;11.13;18.14;100019.88;4978764;28;20428;-80
2022/12/19 03:01:42;;;;;;;60.50;26.40;;;;;;;9.58;19.40;100015.41;4976186;28;20910;-79
2022/12/19 03:05:02;;;;;;;59.78;27.73;;;;;;;8.10;20.91;100015.97;4980354;28;20418;-80
2022/12/19 03:07:30;;;;;;;65.20;29.05;;;;;;;6.18;23.58;100018.06;4952043;28;20432;-80
2022/12/19 03:10:22;;;;;;;75.72;33.67;;;;;;;3.17;28.18;100020.50;4985274;28;20863;-80
2022/12/19 03:12:59;;;;;;;75.43;34.78;;;;;;;3.30;28.89;100020.16;4986858;28;20434;-80
2022/12/19 03:15:26;;;;;;;73.07;34.10;;;;;;;4.14;27.90;100017.97;4987287;28;20459;-80
2022/12/19 03:17:58;;;;;;;63.22;29.23;;;;;;;7.67;23.42;100006.59;4980029;28;20422;-80
2022/12/19 03:20:50;;;;;;;66.50;30.80;;;;;;;6.81;23.51;100003.97;4985116;28;20422;-80
2022/12/19 03:23:17;;;;;;;67.10;32.10;;;;;;;5.96;24.77;100017.44;4983409;28;20422;-80
2022/12/19 03:25:54;;;;;;;74.40;32.85;;;;;;;5.93;24.77;100010.59;4987182;28;20429;-80
2022/12/19 03:28:35;;;;;;;73.90;33.70;;;;;;;4.60;26.61;100017.34;4982679;28;20433;-80
2022/12/19 03:31:03;;;;;;;74.75;34.25;;;;;;;4.59;26.80;100021.16;4981906;28;20509;-80
2022/12/19 03:33:33;;;;;;;70.60;33.30;;;;;;;6.24;25.10;100019.72;4977997;28;20989;-80
2022/12/19 03:36:04;;;;;;;66.95;31.25;;;;;;;8.68;21.75;100028.78;4978562;28;20628;-80
2022/12/19 03:38:32;;;;;;;60.50;28.52;;;;;;;11.19;19.78;100048.91;4982392;28;20415;-80
2022/12/19 03:41:01;;;;;;;70.90;34.08;;;;;;;12.49;16.78;100031.78;4984359;28;20503;-80
2022/12/19 03:43:29;;;;;;;71.95;33.53;;;;;;;13.11;15.59;100032.88;4984516;28;20426;-80
2022/12/19 03:46:08;;;;;;;71.03;33.03;;;;;;;13.44;15.87;100038.09;4986193;28;20411;-80
2022/12/19 03:48:44;;;;;;;76.97;35.43;;;;;;;13.81;15.72;100038.47;4974440;28;20495;-80
2022/12/19 03:51:33;;;;;;;87.53;39.97;;;;;;;13.78;14.44;100041.03;4978244;28;20432;-80
2022/12/19 03:54:12;;;;;;;87.50;41.92;;;;;;;13.33;14.55;100042.22;4978059;28;21341;-80
2022/12/19 03:57:17;;;;;;;88.65;39.13;;;;;;;13.25;15.43;100043.00;4987010;28;20410;-80
2022/12/19 04:00:06;;;;;;;94.25;43.92;;;;;;;12.60;14.44;100050.88;4984452;28;20756;-79
2022/12/19 04:02:37;;;;;;;95.82;43.85;;;;;;;12.00;15.59;100050.19;4981019;28;20442;-80
2022/12/19 04:05:11;;;;;;;98.17;43.80;;;;;;;11.86;14.92;100044.69;4984199;28;20414;-80
2022/12/19 04:07:39;;;;;;;101.07;46.60;;;;;;;11.95;14.16;100045.59;4979402;28;20827;-80
2022/12/19 04:10:11;;;;;;;95.63;42.03;;;;;;;11.96;15.42;100039.00;4977693;28;20438;-80
2022/12/19 04:12:44;;;;;;;83.82;38.72;;;;;;;12.40;15.43;100027.31;4978104;28;20936;-80
2022/12/19 04:15:14;;;;;;;101.75;46.65;;;;;;;12.00;13.94;100031.75;4987655;28;20429;-80
2022/12/19 04:17:45;;;;;;;111.60;48.57;;;;;;;11.55;14.11;100030.66;4981997;28;20450;-80
2022/12/19 04:20:18;;;;;;;104.07;47.45;;;;;;;11.38;15.06;100033.19;4976668;28;20448;-79
2022/12/19 04:23:06;;;;;;;105.83;46.70;;;;;;;11.52;14.57;100023.03;4992024;28;20436;-80
2022/12/19 04:25:39;;;;;;;95.77;42.17;;;;;;;11.89;14.99;100015.75;4981821;28;20458;-80
2022/12/19 04:28:28;;;;;;;108.90;47.33;;;;;;;11.54;14.51;100007.03;4988897;28;20431;-80
2022/12/19 04:30:55;;;;;;;105.47;47.22;;;;;;;11.33;15.34;100011.28;4987985;28;20435;-80
2022/12/19 04:33:21;;;;;;;98.20;45.00;;;;;;;11.78;14.88;100001.38;4990967;28;20414;-79
2022/12/19 04:35:47;;;;;;;102.00;43.83;;;;;;;11.91;14.45;99994.22;4978686;28;20517;-80
2022/12/19 04:38:13;;;;;;;97.60;45.50;;;;;;;11.93;14.23;99986.47;4982713;28;20445;-80
2022/12/19 04:40:39;;;;;;;101.00;44.47;;;;;;;11.83;14.93;99984.78;4985036;28;20852;-80
2022/12/19 04:43:07;;;;;;;99.22;44.20;;;;;;;12.10;14.32;99976.50;4976513;28;20508;-80
2022/12/19 04:45:33;;;;;;;93.32;42.10;;;;;;;12.48;14.65;99980.56;4985096;28;20885;-80
2022/12/19 04:47:59;;;;;;;99.40;43.95;;;;;;;12.21;13.97;99977.06;4984565;28;20409;-80
2022/12/19 04:50:25;;;;;;;100.45;43.83;;;;;;;11.21;14.75;99975.19;4980200;28;20469;-79
2022/12/19 04:52:51;;;;;;;95.10;41.22;;;;;;;11.29;15.57;99969.00;4982621;28;20430;-79
2022/12/19 04:55:17;;;;;;;85.53;37.00;;;;;;;11.88;15.70;99970.88;4979177;28;20427;-79
2022/12/19 04:57:43;;;;;;;85.10;38.30;;;;;;;12.32;14.51;99971.03;4982599;28;20482;-80
2022/12/19 05:00:10;;;;;;;81.20;36.90;;;;;;;12.37;14.94;99972.84;4976522;28;20412;-79
2022/12/19 05:02:37;;;;;;;76.33;33.57;;;;;;;12.80;14.86;99967.72;4983625;28;20467;-80
2022/12/19 05:05:03;;;;;;;68.13;31.23;;;;;;;13.20;15.16;99963.16;4977186;28;20496;-79
2022/12/19 05:07:29;;;;;;;67.57;30.03;;;;;;;13.34;13.92;99961.94;4964855;28;20432;-79
2022/12/19 05:09:59;;;;;;;88.72;36.47;;;;;;;13.33;14.82;99971.34;4976318;28;20413;-79
2022/12/19 05:12:26;;;;;;;82.23;35.23;;;;;;;13.60;14.92;99967.59;4983856;28;20430;-78
2022/12/19 05:14:53;;;;;;;79.90;34.28;;;;;;;13.92;13.84;99969.97;4981927;28;20412;-78
2022/12/19 05:17:19;;;;;;;79.10;34.30;;;;;;;14.10;14.11;99968.06;4978572;28;20426;-80
2022/12/19 05:19:45;;;;;;;82.63;35.77;;;;;;;13.69;13.40;99962.91;4983479;28;20424;-78
2022/12/19 05:22:11;;;;;;;83.00;36.10;;;;;;;12.92;13.74;99965.22;4978709;28;20424;-79
2022/12/19 05:24:37;;;;;;;83.97;35.27;;;;;;;12.49;14.39;99967.63;4981502;28;20412;-79
2022/12/19 05:27:04;;;;;;;80.15;35.05;;;;;;;12.70;13.93;99968.78;4980016;28;20912;-78
2022/12/19 05:29:30;;;;;;;76.10;33.90;;;;;;;12.86;14.28;99969.22;4978736;28;20487;-79
2022/12/19 05:31:56;;;;;;;72.77;32.63;;;;;;;13.21;14.23;99970.31;4990670;28;20448;-80
2022/12/19 05:34:23;;;;;;;78.90;36.05;;;;;;;13.00;13.41;99958.94;4992305;28;20429;-79
2022/12/19 05:36:49;;;;;;;74.03;33.30;;;;;;;12.56;14.28;99964.44;4990541;28;20410;-80
2022/12/19 05:39:15;;;;;;;76.15;31.30;;;;;;;12.82;14.41;99970.97;4981211;28;20465;-79
2022/12/19 05:41:42;;;;;;;69.30;32.15;;;;;;;13.05;13.90;99961.56;4981439;28;20435;-79
2022/12/19 05:44:09;;;;;;;73.77;33.53;;;;;;;13.04;13.50;99960.78;4979946;28;20845;-78
2022/12/19 05:46:35;;;;;;;75.80;34.90;;;;;;;12.95;13.46;99962.63;4964131;28;20921;-79
2022/12/19 05:49:01;;;;;;;85.50;38.10;;;;;;;12.64;13.45;99966.44;4980063;28;20415;-79
2022/12/19 05:51:27;;;;;;;88.60;38.45;;;;;;;11.94;14.22;99963.34;4982491;28;20947;-77
2022/12/19 05:53:53;;;;;;;94.72;41.13;;;;;;;12.28;13.86;99969.19;4980316;28;20430;-79
2022/12/19 05:56:21;;;;;;;;;;;;;;;12.51;13.94;99957.09;4978206;28;20432;-82
2022/12/19 05:58:47;;;;;;;93.40;41.40;;;;;;;12.77;13.35;99958.13;4980678;28;20495;-84
2022/12/19 06:01:19;;;;;;;93.20;41.30;;;;;;;12.00;13.82;99954.69;4980884;28;20424;-84
2022/12/19 06:03:49;;;;;;;103.82;45.45;;;;;;;11.98;13.67;99947.84;4985159;28;20549;-82
2022/12/19 06:06:20;;;;;;;87.90;39.63;;;;;;;11.87;13.70;99946.44;4982993;28;20938;-85
2022/12/19 06:08:50;;;;;;;89.60;38.80;;;;;;;11.86;14.11;99945.63;4978415;28;20479;-79
2022/12/19 06:11:16;;;;;;;78.67;35.63;;;;;;;12.17;14.31;99935.59;4990532;28;20417;-79
2022/12/19 06:13:42;;;;;;;90.10;39.53;;;;;;;12.55;13.66;99949.03;4992962;28;20415;-79
2022/12/19 06:16:14;;;;;;;75.93;34.63;;;;;;;12.72;13.67;99952.72;4991073;28;20418;-79
2022/12/19 06:18:42;;;;;;;99.20;41.45;;;;;;;12.84;13.15;99961.25;4992074;28;20893;-79
2022/12/19 06:21:15;;;;;;;98.60;41.70;;;;;;;12.36;13.42;99941.75;4978006;28;20417;-79
2022/12/19 06:23:41;;;;;;;95.05;40.38;;;;;;;12.49;13.88;99938.13;4989870;28;20480;-79
2022/12/19 06:26:09;;;;;;;83.05;37.00;;;;;;;12.72;13.22;99940.91;4979841;28;20430;-79
2022/12/19 06:28:35;;;;;;;97.18;42.20;;;;;;;12.50;12.43;99938.97;4984412;28;20923;-79
2022/12/19 06:31:03;;;;;;;93.18;41.00;;;;;;;12.16;12.96;99930.41;4981699;28;20928;-79
2022/12/19 06:33:30;;;;;;;95.00;41.00;;;;;;;11.66;13.36;99930.34;4985135;28;20450;-79
2022/12/19 06:36:09;;;;;;;84.95;39.78;;;;;;;11.73;13.15;99928.03;4981788;28;21101;-79
2022/12/19 06:38:35;;;;;;;98.43;42.93;;;;;;;10.60;12.87;99939.69;4982262;28;20424;-79
2022/12/19 06:43:47;;;;;;;117.60;51.40;;;;;;;9.89;13.79;99928.09;4978020;28;20853;-79
2022/12/19 06:46:13;;;;;;;110.70;48.50;;;;;;;10.17;13.92;99936.25;4984094;28;20515;-79
2022/12/19 06:48:39;;;;;;;109.05;45.55;;;;;;;10.54;14.22;99938.16;4983059;28;20414;-79
2022/12/19 06:51:05;;;;;;;91.63;40.20;;;;;;;10.91;14.50;99932.59;4972386;28;20815;-79
2022/12/19 06:53:32;;;;;;;91.93;39.40;;;;;;;10.95;14.65;99939.09;4987284;28;20423;-79
2022/12/19 06:55:59;;;;;;;81.57;35.50;;;;;;;11.09;14.87;99931.69;4980826;28;20508;-78
2022/12/19 06:58:25;;;;;;;74.82;33.28;;;;;;;11.60;15.06;99936.22;4967473;28;20415;-80
2022/12/19 07:00:51;;;;;;;73.80;33.22;;;;;;;11.52;14.68;99928.69;4984394;28;20845;-78
2022/12/19 07:03:22;;;;;;;65.60;29.07;;;;;;;12.04;14.05;99933.66;4982673;28;20432;-79
2022/12/19 07:05:49;;;;;;;65.33;27.27;;;;;;;12.49;14.14;99926.28;4982021;28;20427;-78
2022/12/19 07:08:15;;;;;;;68.77;30.17;;;;;;;13.06;13.67;99933.72;4984911;28;20819;-78
2022/12/19 07:10:41;;;;;;;80.10;35.92;;;;;;;13.34;13.30;99945.38;4986002;28;20446;-78
2022/12/19 07:13:07;;;;;;;108.55;45.00;;;;;;;13.24;12.79;99931.88;4980723;28;20527;-78
2022/12/19 07:15:35;;;;;;;98.20;43.20;;;;;;;13.05;13.18;99939.50;4980306;28;20803;-79
2022/12/19 07:18:05;;;;;;;111.50;46.30;;;;;;;12.89;12.57;99935.50;4981208;28;21174;-78
2022/12/19 07:20:33;;;;;;;107.88;48.20;;;;;;;12.69;12.94;99938.78;4981356;28;20470;-78
2022/12/19 07:23:00;;;;;;;106.20;48.40;;;;;;;12.75;12.68;99937.53;4965088;28;20835;-78
2022/12/19 07:25:27;;;;;;;115.03;51.08;;;;;;;12.31;12.69;99936.38;4984615;28;20430;-78
2022/12/19 07:27:53;;;;;;;124.88;54.38;;;;;;;11.74;13.04;99940.63;4981147;28;20414;-78
2022/12/19 07:30:19;;;;;;;114.13;50.55;;;;;;;11.86;13.38;99939.28;4965677;28;21358;-78
2022/12/19 07:32:45;;;;;;;115.65;51.25;;;;;;;11.85;13.88;99934.94;4983041;28;20496;-78
2022/12/19 07:35:11;;;;;;;132.45;58.65;;;;;;;11.62;13.50;99932.03;4983663;28;20794;-78
2022/12/19 07:37:37;;;;;;;131.48;56.33;;;;;;;11.75;13.70;99939.53;4977107;28;20414;-78
2022/12/19 07:40:04;;;;;;;121.27;53.83;;;;;;;12.30;13.82;99944.91;4985205;28;20761;-78
2022/12/19 07:42:30;;;;;;;132.07;57.03;;;;;;;12.78;12.71;99946.00;4986036;28;20438;-78
2022/12/19 07:44:56;;;;;;;116.27;50.50;;;;;;;13.20;13.51;99946.59;4986047;28;27460;-78
2022/12/19 07:47:22;;;;;;;135.88;58.72;;;;;;;12.93;12.79;99940.06;4985855;28;20982;-78
2022/12/19 07:49:48;;;;;;;123.65;54.50;;;;;;;12.97;13.35;99934.75;4986302;28;20423;-78
2022/12/19 07:52:14;;;;;;;134.73;60.20;;;;;;;12.93;12.28;99936.50;4989648;28;20744;-78
2022/12/19 07:54:40;;;;;;;116.95;54.63;;;;;;;12.29;13.58;99941.38;4974231;28;20411;-79
2022/12/19 07:57:06;;;;;;;146.87;63.83;;;;;;;11.93;12.88;99924.00;4992828;28;20890;-78
2022/12/19 07:59:32;;;;;;;138.05;58.67;;;;;;;12.02;13.83;99915.84;4988408;28;20461;-78
2022/12/19 08:01:59;;;;;;;130.10;57.70;;;;;;;12.31;13.90;99922.59;4987399;28;20388;-78
2022/12/19 08:04:25;;;;;;;144.13;64.47;;;;;;;12.50;12.99;99908.66;4987983;28;20418;-78
2022/12/19 08:06:51;;;;;;;138.30;61.45;;;;;;;12.51;13.94;99915.78;4988421;28;20400;-78
2022/12/19 08:09:17;;;;;;;133.80;60.75;;;;;;;12.96;13.22;99897.28;4980128;28;20764;-78
2022/12/19 08:11:43;;;;;;;130.07;56.78;;;;;;;13.22;13.84;99917.56;4977809;28;20421;-79
2022/12/19 08:14:09;;;;;;;110.70;51.63;;;;;;;13.78;13.50;99914.06;4984623;28;20457;-78
2022/12/19 08:16:35;;;;;;;118.60;53.40;;;;;;;13.62;13.57;99910.94;4980207;28;20424;-78
2022/12/19 08:19:02;;;;;;;121.20;54.63;;;;;;;13.83;13.04;99905.63;4984785;28;20418;-79
2022/12/19 08:21:29;;;;;;;129.20;59.55;;;;;;;13.48;13.65;99899.19;4984128;28;20439;-79
2022/12/19 08:23:55;;;;;;;132.25;60.33;;;;;;;13.22;13.80;99897.47;4986162;28;20523;-78
2022/12/19 08:26:26;;;;;;;118.95;53.85;;;;;;;13.47;14.15;99897.56;4972898;28;20773;-78
2022/12/19 08:28:58;;;;;;;132.10;60.53;;;;;;;13.42;13.84;99892.19;4986591;28;20931;-78
2022/12/19 08:31:26;;;;;;;134.98;62.08;;;;;;;13.09;13.69;99877.94;4990498;28;20437;-78
2022/12/19 08:33:55;;;;;;;123.73;57.00;;;;;;;13.04;14.77;99880.81;4987181;28;20466;-78
2022/12/19 08:36:23;;;;;;;116.40;54.08;;;;;;;13.77;14.46;99885.63;4981290;28;20453;-78
2022/12/19 08:38:49;;;;;;;123.75;55.55;;;;;;;14.29;14.09;99878.22;4985907;28;20426;-78
2022/12/19 08:41:16;;;;;;;123.70;57.40;;;;;;;14.12;14.01;99877.44;4983279;28;20424;-78
2022/12/19 08:43:50;;;;;;;115.67;55.10;;;;;;;13.88;14.41;99869.59;4981080;28;20523;-79
2022/12/19 08:46:17;;;;;;;111.75;54.42;;;;;;;14.18;14.09;99863.13;4985474;28;20498;-79
2022/12/19 08:48:44;;;;;;;120.20;56.75;;;;;;;14.39;14.44;99869.66;4985428;28;20448;-79
2022/12/19 08:51:11;;;;;;;118.32;55.90;;;;;;;14.25;14.72;99862.63;4988196;28;20414;-78
2022/12/19 08:53:41;;;;;;;113.60;53.43;;;;;;;14.01;14.82;99859.53;4981016;28;20519;-79
2022/12/19 08:56:39;;;;;;;95.10;45.40;;;;;;;13.98;15.15;99858.22;4977097;28;20474;-79
2022/12/19 08:59:05;;;;;;;104.90;49.70;;;;;;;13.74;15.56;99847.66;4955929;28;20491;-79
2022/12/19 09:01:32;;;;;;;84.13;41.97;;;;;;;13.83;15.92;99845.72;4958461;28;20609;-79
2022/12/19 09:03:58;;;;;;;82.90;41.05;;;;;;;14.42;15.94;99855.19;4958661;28;20452;-79
2022/12/19 09:06:25;;;;;;;88.35;42.60;;;;;;;14.58;15.76;99847.22;4962400;28;20525;-79
2022/12/19 09:08:51;;;;;;;93.85;47.10;;;;;;;14.70;15.56;99855.66;4973739;28;20429;-79
2022/12/19 09:11:19;;;;;;;121.00;55.63;;;;;;;15.22;15.52;99853.50;4981843;28;20519;-79
2022/12/19 09:13:46;;;;;;;117.77;54.97;;;;;;;15.47;15.14;99852.63;4981554;28;20430;-79
2022/12/19 09:16:21;;;;;;;113.20;53.40;;;;;;;15.59;14.75;99849.94;4974997;28;20416;-78
2022/12/19 09:18:50;;;;;;;108.30;53.80;;;;;;;15.75;14.59;99852.97;4972162;28;20434;-79
2022/12/19 09:21:18;;;;;;;105.22;51.30;;;;;;;15.90;14.89;99858.72;4978752;28;20423;-79
2022/12/19 09:23:49;;;;;;;102.60;51.50;;;;;;;16.09;14.83;99860.22;4979102;28;20473;-79
2022/12/19 09:26:15;;;;;;;93.97;46.13;;;;;;;16.18;14.60;99859.00;4980517;28;20430;-79
2022/12/19 09:28:41;;;;;;;110.05;53.15;;;;;;;15.67;14.11;99856.59;4980128;28;20468;-79
2022/12/19 09:31:11;;;;;;;107.45;51.45;;;;;;;15.63;14.73;99855.63;4986350;28;20452;-79
2022/12/19 09:33:38;;;;;;;99.93;51.35;;;;;;;15.81;15.19;99854.38;4983854;28;20424;-79
2022/12/19 09:36:05;;;;;;;107.70;51.55;;;;;;;15.94;14.84;99853.31;4973649;28;20536;-79
2022/12/19 09:38:33;;;;;;;117.85;58.30;;;;;;;15.99;14.28;99836.50;4982553;28;20497;-79
2022/12/19 09:41:23;;;;;;;114.60;56.47;;;;;;;15.83;14.63;99835.47;4986513;28;20827;-79
2022/12/19 09:44:21;;;;;;;112.25;53.45;;;;;;;16.08;15.28;99819.81;4976288;28;20448;-79
2022/12/19 09:46:53;;;;;;;113.93;54.97;;;;;;;16.19;15.19;99823.78;4987226;28;20414;-79
2022/12/19 09:49:24;;;;;;;111.00;54.97;;;;;;;16.53;15.26;99823.50;4984895;28;20976;-79
2022/12/19 09:52:09;;;;;;;107.32;53.00;;;;;;;16.97;15.21;99819.91;4985626;28;20402;-79
2022/12/19 09:54:42;;;;;;;112.15;56.15;;;;;;;17.08;14.39;99804.44;4979200;28;20431;-79
2022/12/19 09:57:49;;;;;;;112.90;54.27;;;;;;;16.75;14.96;99825.09;4982924;28;20422;-79
2022/12/19 10:00:19;;;;;;;110.68;55.80;;;;;;;16.83;14.95;99829.72;4983906;28;20497;-79
2022/12/19 10:03:04;;;;;;;109.30;53.50;;;;;;;17.05;15.66;99823.75;4982382;28;20473;-79
2022/12/19 10:05:38;;;;;;;104.90;53.10;;;;;;;17.45;15.46;99823.91;4983937;28;20433;-79
2022/12/19 10:08:43;;;;;;;106.60;52.72;;;;;;;17.67;15.48;99829.00;4982376;28;20930;-79
2022/12/19 10:11:15;;;;;;;100.00;52.60;;;;;;;17.87;15.25;99826.09;4985363;28;20418;-79
2022/12/19 10:13:59;;;;;;;101.80;51.33;;;;;;;18.00;15.40;99815.75;4986615;28;20425;-79
2022/12/19 10:16:59;;;;;;;99.50;50.97;;;;;;;18.04;14.88;99801.97;4969375;28;20918;-80
2022/12/19 10:19:47;;;;;;;117.65;57.38;;;;;;;18.06;15.37;99789.34;4984827;28;20518;-79
2022/12/19 10:22:49;;;;;;;117.35;60.35;;;;;;;17.95;15.32;99790.97;4984690;28;20457;-79
2022/12/19 10:25:26;;;;;;;117.05;58.58;;;;;;;18.19;15.59;99787.31;4991162;28;20757;-79
2022/12/19 10:28:03;;;;;;;112.07;57.00;;;;;;;18.53;15.70;99775.59;4986406;28;20406;-79
2022/12/19 10:30:38;;;;;;;113.18;58.65;;;;;;;18.72;15.42;99766.59;4982141;28;20433;-79
2022/12/19 10:33:43;;;;;;;117.27;61.10;;;;;;;18.49;15.71;99775.50;4981738;28;20392;-79
2022/12/19 10:36:10;;;;;;;119.85;62.35;;;;;;;18.52;15.90;99772.03;4988546;28;20406;-80
2022/12/19 10:39:01;;;;;;;117.05;62.13;;;;;;;18.76;15.85;99768.31;4974114;28;20403;-80
2022/12/19 10:41:30;;;;;;;109.47;58.53;;;;;;;18.85;16.84;99759.78;4975475;28;20411;-80
2022/12/19 10:44:06;;;;;;;111.50;59.80;;;;;;;19.11;15.52;99758.06;4975383;28;20408;-80
2022/12/19 10:46:49;;;;;;;108.50;57.85;;;;;;;19.38;15.53;99755.53;4986775;28;20438;-80
2022/12/19 10:49:18;;;;;;;103.82;56.97;;;;;;;19.39;15.84;99763.56;4983892;28;20434;-80
2022/12/19 10:51:58;;;;;;;107.28;56.75;;;;;;;19.54;15.69;99757.13;4981474;28;20496;-80
2022/12/19 10:54:40;;;;;;;107.10;57.37;;;;;;;19.45;16.43;99750.13;4981845;28;20423;-79
2022/12/19 10:57:24;;;;;;;109.93;60.72;;;;;;;19.02;16.91;99743.50;4980704;28;20469;-79
2022/12/19 10:59:59;;;;;;;108.95;59.72;;;;;;;19.41;17.01;99738.94;4985906;28;20422;-78
2022/12/19 11:02:37;;;;;;;103.67;57.20;;;;;;;19.90;16.09;99733.66;4983516;28;20429;-78
2022/12/19 11:05:05;;;;;;;105.68;57.42;;;;;;;19.66;17.26;99731.13;4976072;28;20424;-78
2022/12/19 11:07:31;;;;;;;101.57;55.55;;;;;;;20.06;17.10;99728.81;4979416;28;20890;-79
2022/12/19 11:09:57;;;;;;;106.32;59.92;;;;;;;20.00;16.47;99719.09;4982256;28;20449;-78
2022/12/19 11:12:26;;;;;;;110.13;59.90;;;;;;;19.59;17.17;99709.50;4957428;28;20427;-79
2022/12/19 11:15:13;;;;;;;103.87;57.07;;;;;;;19.42;18.00;99698.75;4976758;28;20547;-78
2022/12/19 11:17:39;;;;;;;102.45;57.42;;;;;;;19.93;17.05;99694.69;4984784;28;20505;-78
2022/12/19 11:20:20;;;;;;;103.43;56.20;;;;;;;20.32;17.46;99689.94;4989607;28;20414;-78
2022/12/19 11:22:57;;;;;;;103.93;56.83;;;;;;;20.64;17.11;99687.69;4981506;28;20422;-78
2022/12/19 11:25:39;;;;;;;103.20;56.70;;;;;;;20.93;16.50;99684.22;4972824;28;20416;-79
2022/12/19 11:28:26;;;;;;;103.10;56.55;;;;;;;21.11;16.63;99676.97;4984219;28;20430;-79
2022/12/19 11:31:04;;;;;;;110.38;59.00;;;;;;;21.02;16.33;99679.19;4978921;28;20426;-79
2022/12/19 11:33:31;;;;;;;101.67;56.40;;;;;;;21.01;16.57;99680.34;4984087;28;20479;-79
2022/12/19 11:36:00;;;;;;;98.28;54.33;;;;;;;21.19;16.01;99683.47;4983416;28;20439;-79